sensor_id;sensor_type;location;lat;lon;timestamp;pressure;altitude;pressure_sealevel;temperature;humidity
76156;BME280;64906;51.290;7.348;2023-03-31T00:00:09;97650.50;;;19.88;42.53
76156;BME280;64906;51.290;7.348;2023-03-31T00:02:37;97639.88;;;19.87;42.71
76156;BME280;64906;51.290;7.348;2023-03-31T00:05:06;97628.41;;;19.85;42.65
76156;BME280;64906;51.290;7.348;2023-03-31T00:07:31;97628.09;;;19.86;42.64
76156;BME280;64906;51.290;7.348;2023-03-31T00:09:57;97634.84;;;19.89;42.54
76156;BME280;64906;51.290;7.348;2023-03-31T00:12:26;97622.94;;;19.85;42.82
76156;BME280;64906;51.290;7.348;2023-03-31T00:14:51;97610.66;;;19.82;42.72
76156;BME280;64906;51.290;7.348;2023-03-31T00:17:17;97596.28;;;19.68;42.91
76156;BME280;64906;51.290;7.348;2023-03-31T00:19:42;97600.13;;;19.67;43.05
76156;BME280;64906;51.290;7.348;2023-03-31T00:22:08;97592.22;;;19.66;43.08
76156;BME280;64906;51.290;7.348;2023-03-31T00:24:34;97584.34;;;19.64;42.90
76156;BME280;64906;51.290;7.348;2023-03-31T00:27:04;97583.22;;;19.65;42.89
76156;BME280;64906;51.290;7.348;2023-03-31T00:29:30;97588.19;;;19.63;42.98
76156;BME280;64906;51.290;7.348;2023-03-31T00:31:55;97587.06;;;19.64;43.19
76156;BME280;64906;51.290;7.348;2023-03-31T00:34:21;97581.91;;;19.63;43.06
76156;BME280;64906;51.290;7.348;2023-03-31T00:36:46;97562.75;;;19.63;43.19
76156;BME280;64906;51.290;7.348;2023-03-31T00:39:14;97565.81;;;19.61;43.05
76156;BME280;64906;51.290;7.348;2023-03-31T00:41:40;97563.06;;;19.61;43.04
76156;BME280;64906;51.290;7.348;2023-03-31T00:44:13;97551.28;;;19.61;43.12
76156;BME280;64906;51.290;7.348;2023-03-31T00:49:22;97564.19;;;19.60;42.97
76156;BME280;64906;51.290;7.348;2023-03-31T00:51:51;97555.50;;;19.58;42.98
76156;BME280;64906;51.290;7.348;2023-03-31T00:54:18;97559.03;;;19.59;43.25
76156;BME280;64906;51.290;7.348;2023-03-31T00:56:47;97557.09;;;19.59;43.13
76156;BME280;64906;51.290;7.348;2023-03-31T00:59:15;97552.25;;;19.56;42.85
76156;BME280;64906;51.290;7.348;2023-03-31T01:01:43;97546.47;;;19.58;43.13
76156;BME280;64906;51.290;7.348;2023-03-31T01:04:11;97545.69;;;19.57;42.85
76156;BME280;64906;51.290;7.348;2023-03-31T01:06:52;97534.22;;;19.55;42.89
76156;BME280;64906;51.290;7.348;2023-03-31T01:09:22;97523.78;;;19.57;42.99
76156;BME280;64906;51.290;7.348;2023-03-31T01:11:49;97523.59;;;19.54;42.95
76156;BME280;64906;51.290;7.348;2023-03-31T01:14:14;97514.56;;;19.53;42.96
76156;BME280;64906;51.290;7.348;2023-03-31T01:16:39;97509.09;;;19.53;42.79
76156;BME280;64906;51.290;7.348;2023-03-31T01:19:15;97499.75;;;19.54;43.01
76156;BME280;64906;51.290;7.348;2023-03-31T01:24:52;97484.94;;;19.55;42.90
76156;BME280;64906;51.290;7.348;2023-03-31T01:35:57;97458.88;;;19.49;43.11
76156;BME280;64906;51.290;7.348;2023-03-31T01:44:30;97440.50;;;19.50;42.94
76156;BME280;64906;51.290;7.348;2023-03-31T01:47:02;97432.59;;;19.48;42.97
76156;BME280;64906;51.290;7.348;2023-03-31T01:49:45;97433.72;;;19.47;43.05
76156;BME280;64906;51.290;7.348;2023-03-31T01:54:52;97425.53;;;19.47;42.97
76156;BME280;64906;51.290;7.348;2023-03-31T02:02:39;97414.09;;;19.45;42.73
76156;BME280;64906;51.290;7.348;2023-03-31T02:05:10;97411.34;;;19.45;42.70
76156;BME280;64906;51.290;7.348;2023-03-31T02:07:40;97407.47;;;19.46;42.80
76156;BME280;64906;51.290;7.348;2023-03-31T02:10:09;97399.41;;;19.41;42.93
76156;BME280;64906;51.290;7.348;2023-03-31T02:12:38;97399.09;;;19.43;42.87
76156;BME280;64906;51.290;7.348;2023-03-31T02:15:08;97383.00;;;19.41;42.75
76156;BME280;64906;51.290;7.348;2023-03-31T02:17:36;97377.19;;;19.43;43.00
76156;BME280;64906;51.290;7.348;2023-03-31T02:20:09;97379.94;;;19.43;42.94
76156;BME280;64906;51.290;7.348;2023-03-31T02:22:38;97376.41;;;19.42;42.73
76156;BME280;64906;51.290;7.348;2023-03-31T02:25:07;97375.91;;;19.40;42.92
76156;BME280;64906;51.290;7.348;2023-03-31T02:27:38;97368.53;;;19.41;43.02
76156;BME280;64906;51.290;7.348;2023-03-31T02:30:05;97360.31;;;19.41;42.90
76156;BME280;64906;51.290;7.348;2023-03-31T02:32:38;97363.84;;;19.41;42.89
76156;BME280;64906;51.290;7.348;2023-03-31T02:35:09;97358.22;;;19.38;42.71
76156;BME280;64906;51.290;7.348;2023-03-31T02:37:37;97359.00;;;19.38;43.02
76156;BME280;64906;51.290;7.348;2023-03-31T02:40:09;97357.41;;;19.37;42.82
76156;BME280;64906;51.290;7.348;2023-03-31T02:42:37;97344.53;;;19.38;42.95
76156;BME280;64906;51.290;7.348;2023-03-31T02:45:05;97338.25;;;19.37;42.71
76156;BME280;64906;51.290;7.348;2023-03-31T02:47:31;97329.53;;;19.35;43.04
76156;BME280;64906;51.290;7.348;2023-03-31T02:49:59;97321.84;;;19.37;42.84
76156;BME280;64906;51.290;7.348;2023-03-31T02:52:41;97322.94;;;19.36;42.93
76156;BME280;64906;51.290;7.348;2023-03-31T02:58:12;97297.84;;;19.34;42.79
76156;BME280;64906;51.290;7.348;2023-03-31T03:03:43;97266.13;;;19.33;42.80
76156;BME280;64906;51.290;7.348;2023-03-31T03:07:02;97254.72;;;19.31;43.10
76156;BME280;64906;51.290;7.348;2023-03-31T03:12:16;97238.59;;;19.30;43.00
76156;BME280;64906;51.290;7.348;2023-03-31T03:15:05;97242.97;;;19.31;43.08
76156;BME280;64906;51.290;7.348;2023-03-31T03:17:35;97234.44;;;19.32;42.78
76156;BME280;64906;51.290;7.348;2023-03-31T03:20:02;97219.16;;;19.31;42.61
76156;BME280;64906;51.290;7.348;2023-03-31T03:22:34;97210.44;;;19.29;42.64
76156;BME280;64906;51.290;7.348;2023-03-31T03:25:00;97210.75;;;19.28;42.59
76156;BME280;64906;51.290;7.348;2023-03-31T03:27:26;97208.00;;;19.28;42.88
76156;BME280;64906;51.290;7.348;2023-03-31T03:29:52;97202.25;;;19.29;43.04
76156;BME280;64906;51.290;7.348;2023-03-31T03:32:17;97192.38;;;19.28;42.81
76156;BME280;64906;51.290;7.348;2023-03-31T03:34:43;97186.13;;;19.28;42.72
76156;BME280;64906;51.290;7.348;2023-03-31T03:37:08;97177.63;;;19.29;42.66
76156;BME280;64906;51.290;7.348;2023-03-31T03:39:33;97178.69;;;19.28;42.83
76156;BME280;64906;51.290;7.348;2023-03-31T03:41:59;97178.69;;;19.28;43.06
76156;BME280;64906;51.290;7.348;2023-03-31T03:44:24;97164.56;;;19.26;42.72
76156;BME280;64906;51.290;7.348;2023-03-31T03:46:50;97150.88;;;19.26;42.78
76156;BME280;64906;51.290;7.348;2023-03-31T03:49:15;97145.41;;;19.26;42.92
76156;BME280;64906;51.290;7.348;2023-03-31T03:51:40;97152.81;;;19.26;42.75
76156;BME280;64906;51.290;7.348;2023-03-31T03:54:06;97158.28;;;19.26;42.85
76156;BME280;64906;51.290;7.348;2023-03-31T03:56:31;97147.00;;;19.27;42.83
76156;BME280;64906;51.290;7.348;2023-03-31T03:58:56;97140.38;;;19.28;42.88
76156;BME280;64906;51.290;7.348;2023-03-31T04:01:22;97137.66;;;19.28;42.83
76156;BME280;64906;51.290;7.348;2023-03-31T04:03:48;97102.41;;;19.27;42.84
76156;BME280;64906;51.290;7.348;2023-03-31T04:06:13;97107.56;;;19.28;42.72
76156;BME280;64906;51.290;7.348;2023-03-31T04:08:38;97115.47;;;19.30;42.97
76156;BME280;64906;51.290;7.348;2023-03-31T04:11:13;97109.22;;;19.29;42.80
76156;BME280;64906;51.290;7.348;2023-03-31T04:13:39;97101.16;;;19.33;42.78
76156;BME280;64906;51.290;7.348;2023-03-31T04:16:05;97097.63;;;19.32;43.02
76156;BME280;64906;51.290;7.348;2023-03-31T04:18:31;97111.47;;;19.36;42.79
76156;BME280;64906;51.290;7.348;2023-03-31T04:20:56;97104.34;;;19.35;43.19
76156;BME280;64906;51.290;7.348;2023-03-31T04:23:35;97102.91;;;19.37;42.77
76156;BME280;64906;51.290;7.348;2023-03-31T04:26:09;97101.78;;;19.38;43.07
76156;BME280;64906;51.290;7.348;2023-03-31T04:28:36;97095.31;;;19.43;43.18
76156;BME280;64906;51.290;7.348;2023-03-31T04:31:03;97085.19;;;19.43;43.03
76156;BME280;64906;51.290;7.348;2023-03-31T04:33:30;97072.16;;;19.40;43.02
76156;BME280;64906;51.290;7.348;2023-03-31T04:35:58;97075.38;;;19.42;43.06
76156;BME280;64906;51.290;7.348;2023-03-31T04:38:30;97072.66;;;19.42;43.41
76156;BME280;64906;51.290;7.348;2023-03-31T04:40:58;97063.63;;;19.42;43.28
76156;BME280;64906;51.290;7.348;2023-03-31T04:43:23;97067.66;;;19.44;43.28
76156;BME280;64906;51.290;7.348;2023-03-31T04:45:48;97064.75;;;19.49;43.41
76156;BME280;64906;51.290;7.348;2023-03-31T04:48:14;97048.50;;;19.44;43.53
76156;BME280;64906;51.290;7.348;2023-03-31T04:50:39;97049.94;;;19.50;43.21
76156;BME280;64906;51.290;7.348;2023-03-31T04:53:05;97039.78;;;19.51;43.51
76156;BME280;64906;51.290;7.348;2023-03-31T04:55:30;97038.31;;;19.53;43.43
76156;BME280;64906;51.290;7.348;2023-03-31T04:57:55;97038.66;;;19.52;43.43
76156;BME280;64906;51.290;7.348;2023-03-31T05:00:21;97029.94;;;19.50;43.64
76156;BME280;64906;51.290;7.348;2023-03-31T05:02:46;97029.63;;;19.51;43.62
76156;BME280;64906;51.290;7.348;2023-03-31T05:05:12;97029.78;;;19.55;43.24
76156;BME280;64906;51.290;7.348;2023-03-31T05:07:37;97012.25;;;19.56;43.78
76156;BME280;64906;51.290;7.348;2023-03-31T05:10:03;97009.81;;;19.54;43.74
76156;BME280;64906;51.290;7.348;2023-03-31T05:12:39;96994.69;;;19.57;43.45
76156;BME280;64906;51.290;7.348;2023-03-31T05:15:05;96982.91;;;19.56;43.77
76156;BME280;64906;51.290;7.348;2023-03-31T05:17:32;96988.53;;;19.60;43.59
76156;BME280;64906;51.290;7.348;2023-03-31T05:19:58;96979.50;;;19.59;43.70
76156;BME280;64906;51.290;7.348;2023-03-31T05:22:24;96958.09;;;19.61;43.63
76156;BME280;64906;51.290;7.348;2023-03-31T05:24:49;96945.22;;;19.62;43.75
76156;BME280;64906;51.290;7.348;2023-03-31T05:27:15;96940.56;;;19.62;43.68
76156;BME280;64906;51.290;7.348;2023-03-31T05:29:40;96932.34;;;19.62;44.05
76156;BME280;64906;51.290;7.348;2023-03-31T05:32:06;96935.09;;;19.62;43.85
76156;BME280;64906;51.290;7.348;2023-03-31T05:34:31;96923.00;;;19.63;43.80
76156;BME280;64906;51.290;7.348;2023-03-31T05:36:57;96918.31;;;19.64;44.11
76156;BME280;64906;51.290;7.348;2023-03-31T05:39:22;96912.72;;;19.60;44.24
76156;BME280;64906;51.290;7.348;2023-03-31T05:41:48;96913.63;;;19.64;44.00
76156;BME280;64906;51.290;7.348;2023-03-31T05:44:13;96900.28;;;19.63;44.23
76156;BME280;64906;51.290;7.348;2023-03-31T05:46:38;96902.00;;;19.67;44.24
76156;BME280;64906;51.290;7.348;2023-03-31T05:49:04;96887.53;;;19.67;44.33
76156;BME280;64906;51.290;7.348;2023-03-31T05:51:30;96884.00;;;19.66;44.35
76156;BME280;64906;51.290;7.348;2023-03-31T05:53:55;96882.06;;;19.67;44.24
76156;BME280;64906;51.290;7.348;2023-03-31T05:56:21;96881.25;;;19.66;44.53
76156;BME280;64906;51.290;7.348;2023-03-31T05:58:46;96868.84;;;19.69;44.32
76156;BME280;64906;51.290;7.348;2023-03-31T06:01:13;96878.19;;;19.68;44.06
76156;BME280;64906;51.290;7.348;2023-03-31T06:03:44;96873.03;;;19.66;44.26
76156;BME280;64906;51.290;7.348;2023-03-31T06:06:09;96862.25;;;19.70;44.39
76156;BME280;64906;51.290;7.348;2023-03-31T06:08:37;96857.09;;;19.68;44.32
76156;BME280;64906;51.290;7.348;2023-03-31T06:11:07;96865.66;;;19.67;44.42
76156;BME280;64906;51.290;7.348;2023-03-31T06:13:34;96855.16;;;19.69;44.25
76156;BME280;64906;51.290;7.348;2023-03-31T06:16:00;96861.91;;;19.71;44.15
76156;BME280;64906;51.290;7.348;2023-03-31T06:18:26;96852.09;;;19.70;44.27
76156;BME280;64906;51.290;7.348;2023-03-31T06:20:53;96860.31;;;19.70;44.43
76156;BME280;64906;51.290;7.348;2023-03-31T06:23:19;96852.09;;;19.70;44.23
76156;BME280;64906;51.290;7.348;2023-03-31T06:25:44;96839.53;;;19.69;44.27
76156;BME280;64906;51.290;7.348;2023-03-31T06:28:10;96855.63;;;19.71;44.34
76156;BME280;64906;51.290;7.348;2023-03-31T06:30:35;96854.84;;;19.70;44.17
76156;BME280;64906;51.290;7.348;2023-03-31T06:33:00;96846.72;;;19.74;44.01
76156;BME280;64906;51.290;7.348;2023-03-31T06:35:26;96843.88;;;19.70;44.08
76156;BME280;64906;51.290;7.348;2023-03-31T06:37:51;96852.53;;;19.72;44.29
76156;BME280;64906;51.290;7.348;2023-03-31T06:40:16;96850.28;;;19.74;43.78
76156;BME280;64906;51.290;7.348;2023-03-31T06:42:42;96847.53;;;19.74;43.90
76156;BME280;64906;51.290;7.348;2023-03-31T06:45:07;96836.59;;;19.74;44.31
76156;BME280;64906;51.290;7.348;2023-03-31T06:47:33;96831.94;;;19.75;44.17
76156;BME280;64906;51.290;7.348;2023-03-31T06:49:58;96833.50;;;19.76;44.00
76156;BME280;64906;51.290;7.348;2023-03-31T06:52:24;96834.31;;;19.76;44.09
76156;BME280;64906;51.290;7.348;2023-03-31T06:54:49;96822.22;;;19.77;44.13
76156;BME280;64906;51.290;7.348;2023-03-31T06:57:15;96826.13;;;19.76;43.78
76156;BME280;64906;51.290;7.348;2023-03-31T06:59:40;96821.44;;;19.77;43.95
76156;BME280;64906;51.290;7.348;2023-03-31T07:02:06;96833.66;;;19.79;43.61
76156;BME280;64906;51.290;7.348;2023-03-31T07:04:31;96829.47;;;19.82;43.84
76156;BME280;64906;51.290;7.348;2023-03-31T07:06:57;96829.78;;;19.80;43.70
76156;BME280;64906;51.290;7.348;2023-03-31T07:09:23;96827.50;;;19.82;43.76
76156;BME280;64906;51.290;7.348;2023-03-31T07:11:48;96836.88;;;19.81;43.76
76156;BME280;64906;51.290;7.348;2023-03-31T07:14:14;96832.97;;;19.82;43.91
76156;BME280;64906;51.290;7.348;2023-03-31T07:16:39;96836.38;;;19.79;43.96
76156;BME280;64906;51.290;7.348;2023-03-31T07:19:06;96827.03;;;19.80;43.76
76156;BME280;64906;51.290;7.348;2023-03-31T07:21:32;96835.25;;;19.80;43.78
76156;BME280;64906;51.290;7.348;2023-03-31T07:23:58;96820.78;;;19.80;43.85
76156;BME280;64906;51.290;7.348;2023-03-31T07:26:24;96823.50;;;19.80;44.07
76156;BME280;64906;51.290;7.348;2023-03-31T07:28:51;96809.81;;;19.80;43.93
76156;BME280;64906;51.290;7.348;2023-03-31T07:31:16;96812.22;;;19.81;44.07
76156;BME280;64906;51.290;7.348;2023-03-31T07:33:42;96810.28;;;19.82;43.94
76156;BME280;64906;51.290;7.348;2023-03-31T07:36:09;96815.44;;;19.83;44.02
76156;BME280;64906;51.290;7.348;2023-03-31T07:38:35;96808.81;;;19.84;44.01
76156;BME280;64906;51.290;7.348;2023-03-31T07:41:00;96806.06;;;19.84;44.02
76156;BME280;64906;51.290;7.348;2023-03-31T07:43:26;96800.94;;;19.83;44.17
76156;BME280;64906;51.290;7.348;2023-03-31T07:45:51;96794.78;;;19.86;44.05
76156;BME280;64906;51.290;7.348;2023-03-31T07:48:16;96794.44;;;19.87;43.99
76156;BME280;64906;51.290;7.348;2023-03-31T07:50:42;96790.91;;;19.87;44.09
76156;BME280;64906;51.290;7.348;2023-03-31T07:53:07;96795.25;;;19.88;44.34
76156;BME280;64906;51.290;7.348;2023-03-31T07:55:33;96792.50;;;19.88;44.25
76156;BME280;64906;51.290;7.348;2023-03-31T07:57:58;96782.03;;;19.90;44.44
76156;BME280;64906;51.290;7.348;2023-03-31T08:00:23;96796.16;;;19.92;44.20
76156;BME280;64906;51.290;7.348;2023-03-31T08:02:49;96786.84;;;19.93;44.22
76156;BME280;64906;51.290;7.348;2023-03-31T08:05:17;96784.91;;;19.93;44.32
76156;BME280;64906;51.290;7.348;2023-03-31T08:07:44;96780.69;;;19.96;44.37
76156;BME280;64906;51.290;7.348;2023-03-31T08:10:14;96781.81;;;19.95;44.48
76156;BME280;64906;51.290;7.348;2023-03-31T08:12:41;96778.53;;;20.01;44.10
76156;BME280;64906;51.290;7.348;2023-03-31T08:15:07;96780.47;;;20.01;44.07
76156;BME280;64906;51.290;7.348;2023-03-31T08:17:32;96777.38;;;20.02;44.39
76156;BME280;64906;51.290;7.348;2023-03-31T08:19:58;96775.91;;;20.05;44.25
76156;BME280;64906;51.290;7.348;2023-03-31T08:22:23;96780.25;;;20.06;44.15
76156;BME280;64906;51.290;7.348;2023-03-31T08:24:48;96779.91;;;20.08;44.32
76156;BME280;64906;51.290;7.348;2023-03-31T08:27:14;96771.34;;;20.09;44.34
76156;BME280;64906;51.290;7.348;2023-03-31T08:29:39;96774.22;;;20.13;44.23
76156;BME280;64906;51.290;7.348;2023-03-31T08:32:06;96770.69;;;20.12;44.06
76156;BME280;64906;51.290;7.348;2023-03-31T08:34:31;96775.34;;;20.12;44.24
76156;BME280;64906;51.290;7.348;2023-03-31T08:36:56;96774.38;;;20.16;44.19
76156;BME280;64906;51.290;7.348;2023-03-31T08:39:21;96759.88;;;20.16;43.97
76156;BME280;64906;51.290;7.348;2023-03-31T08:44:33;96759.66;;;20.21;43.95
76156;BME280;64906;51.290;7.348;2023-03-31T08:47:01;96758.50;;;20.22;43.86
76156;BME280;64906;51.290;7.348;2023-03-31T08:49:38;96753.03;;;20.22;44.02
76156;BME280;64906;51.290;7.348;2023-03-31T08:52:11;96746.44;;;20.23;44.03
76156;BME280;64906;51.290;7.348;2023-03-31T08:54:45;96755.56;;;20.27;43.98
76156;BME280;64906;51.290;7.348;2023-03-31T08:57:43;96741.97;;;20.30;43.71
76156;BME280;64906;51.290;7.348;2023-03-31T09:00:17;96759.22;;;20.31;43.82
76156;BME280;64906;51.290;7.348;2023-03-31T09:02:48;96751.91;;;20.35;43.67
76156;BME280;64906;51.290;7.348;2023-03-31T09:05:32;96756.63;;;20.34;43.64
76156;BME280;64906;51.290;7.348;2023-03-31T09:10:50;96747.25;;;20.35;43.54
76156;BME280;64906;51.290;7.348;2023-03-31T09:13:37;96747.59;;;20.34;43.77
76156;BME280;64906;51.290;7.348;2023-03-31T09:16:19;96748.41;;;20.34;43.53
76156;BME280;64906;51.290;7.348;2023-03-31T09:18:49;96757.41;;;20.35;43.61
76156;BME280;64906;51.290;7.348;2023-03-31T09:21:40;96744.84;;;20.34;43.56
76156;BME280;64906;51.290;7.348;2023-03-31T09:24:18;96736.63;;;20.34;43.52
76156;BME280;64906;51.290;7.348;2023-03-31T09:26:50;96734.69;;;20.34;43.40
76156;BME280;64906;51.290;7.348;2023-03-31T09:29:23;96725.31;;;20.35;43.38
76156;BME280;64906;51.290;7.348;2023-03-31T09:31:51;96719.97;;;20.39;43.21
76156;BME280;64906;51.290;7.348;2023-03-31T09:34:27;96712.63;;;20.43;43.38
76156;BME280;64906;51.290;7.348;2023-03-31T09:36:53;96713.56;;;20.47;43.58
76156;BME280;64906;51.290;7.348;2023-03-31T09:39:19;96715.50;;;20.46;43.11
76156;BME280;64906;51.290;7.348;2023-03-31T09:41:46;96710.03;;;20.46;43.23
76156;BME280;64906;51.290;7.348;2023-03-31T09:46:57;96704.31;;;20.51;43.34
76156;BME280;64906;51.290;7.348;2023-03-31T09:49:27;96702.38;;;20.52;43.49
76156;BME280;64906;51.290;7.348;2023-03-31T09:52:31;96695.75;;;20.53;43.16
76156;BME280;64906;51.290;7.348;2023-03-31T09:55:00;96692.22;;;20.52;43.42
76156;BME280;64906;51.290;7.348;2023-03-31T09:57:34;96689.84;;;20.51;43.34
76156;BME280;64906;51.290;7.348;2023-03-31T10:00:04;96681.69;;;20.54;42.91
76156;BME280;64906;51.290;7.348;2023-03-31T10:02:40;96688.09;;;20.58;43.39
76156;BME280;64906;51.290;7.348;2023-03-31T10:05:18;96686.16;;;20.59;42.99
76156;BME280;64906;51.290;7.348;2023-03-31T10:07:46;96675.63;;;20.61;43.33
76156;BME280;64906;51.290;7.348;2023-03-31T10:10:30;96668.22;;;20.61;43.15
76156;BME280;64906;51.290;7.348;2023-03-31T10:13:08;96665.13;;;20.63;43.11
76156;BME280;64906;51.290;7.348;2023-03-31T10:15:41;96655.78;;;20.64;43.24
76156;BME280;64906;51.290;7.348;2023-03-31T10:18:12;96648.00;;;20.66;42.74
76156;BME280;64906;51.290;7.348;2023-03-31T10:20:49;96648.00;;;20.66;42.92
76156;BME280;64906;51.290;7.348;2023-03-31T10:23:23;96649.16;;;20.65;43.13
76156;BME280;64906;51.290;7.348;2023-03-31T10:25:51;96638.66;;;20.67;42.80
76156;BME280;64906;51.290;7.348;2023-03-31T10:28:18;96639.41;;;20.67;42.81
76156;BME280;64906;51.290;7.348;2023-03-31T10:30:52;96637.03;;;20.66;42.83
76156;BME280;64906;51.290;7.348;2023-03-31T10:33:22;96627.56;;;20.63;43.00
76156;BME280;64906;51.290;7.348;2023-03-31T10:35:54;96622.09;;;20.63;42.91
76156;BME280;64906;51.290;7.348;2023-03-31T10:38:32;96630.31;;;20.63;42.83
76156;BME280;64906;51.290;7.348;2023-03-31T10:40:59;96653.41;;;20.62;43.05
76156;BME280;64906;51.290;7.348;2023-03-31T10:43:33;96654.53;;;20.61;42.90
76156;BME280;64906;51.290;7.348;2023-03-31T10:46:01;96664.69;;;20.61;43.10
76156;BME280;64906;51.290;7.348;2023-03-31T10:48:27;96672.25;;;20.64;42.77
76156;BME280;64906;51.290;7.348;2023-03-31T10:50:59;96658.19;;;20.65;42.76
76156;BME280;64906;51.290;7.348;2023-03-31T10:53:24;96652.00;;;20.68;42.91
76156;BME280;64906;51.290;7.348;2023-03-31T10:58:48;96641.16;;;20.72;42.75
76156;BME280;64906;51.290;7.348;2023-03-31T11:06:56;96614.72;;;20.79;42.35
76156;BME280;64906;51.290;7.348;2023-03-31T11:09:35;96608.91;;;20.81;42.78
76156;BME280;64906;51.290;7.348;2023-03-31T11:12:20;96606.63;;;20.83;42.54
76156;BME280;64906;51.290;7.348;2023-03-31T11:15:21;96594.50;;;20.84;42.44
76156;BME280;64906;51.290;7.348;2023-03-31T11:23:17;96585.91;;;20.85;42.53
76156;BME280;64906;51.290;7.348;2023-03-31T11:28:36;96648.78;;;20.78;42.38
76156;BME280;64906;51.290;7.348;2023-03-31T11:36:36;96697.69;;;20.76;42.48
76156;BME280;64906;51.290;7.348;2023-03-31T11:39:16;96708.19;;;20.74;42.40
76156;BME280;64906;51.290;7.348;2023-03-31T11:41:57;96697.69;;;20.76;42.81
76156;BME280;64906;51.290;7.348;2023-03-31T11:44:26;96697.56;;;20.73;42.38
76156;BME280;64906;51.290;7.348;2023-03-31T11:47:34;96686.25;;;20.74;42.46
76156;BME280;64906;51.290;7.348;2023-03-31T11:49:44;96689.81;;;20.75;42.69
76156;BME280;64906;51.290;7.348;2023-03-31T11:52:24;96703.53;;;20.75;42.63
76156;BME280;64906;51.290;7.348;2023-03-31T11:55:11;96681.94;;;20.73;42.68
76156;BME280;64906;51.290;7.348;2023-03-31T11:57:45;96670.63;;;20.75;42.58
76156;BME280;64906;51.290;7.348;2023-03-31T12:05:44;96659.75;;;20.78;42.36
76156;BME280;64906;51.290;7.348;2023-03-31T12:14:23;96639.06;;;20.81;42.09
76156;BME280;64906;51.290;7.348;2023-03-31T12:16:53;96635.19;;;20.82;42.34
76156;BME280;64906;51.290;7.348;2023-03-31T12:19:27;96636.31;;;20.93;42.05
76156;BME280;64906;51.290;7.348;2023-03-31T12:24:47;96626.72;;;20.99;41.78
76156;BME280;64906;51.290;7.348;2023-03-31T12:27:19;96622.50;;;21.01;41.72
76156;BME280;64906;51.290;7.348;2023-03-31T12:32:46;96616.19;;;21.01;41.79
76156;BME280;64906;51.290;7.348;2023-03-31T12:35:21;96605.69;;;21.03;41.95
76156;BME280;64906;51.290;7.348;2023-03-31T12:38:03;96615.50;;;21.04;41.58
76156;BME280;64906;51.290;7.348;2023-03-31T12:43:12;96609.56;;;21.02;41.82
76156;BME280;64906;51.290;7.348;2023-03-31T12:52:17;96606.03;;;21.01;42.31
76156;BME280;64906;51.290;7.348;2023-03-31T12:57:33;96611.88;;;21.00;42.20
76156;BME280;64906;51.290;7.348;2023-03-31T13:00:18;96610.72;;;21.01;42.20
76156;BME280;64906;51.290;7.348;2023-03-31T13:02:46;96603.63;;;21.00;42.03
76156;BME280;64906;51.290;7.348;2023-03-31T13:08:08;96590.00;;;21.03;42.05
76156;BME280;64906;51.290;7.348;2023-03-31T13:10:56;96603.81;;;21.07;42.04
76156;BME280;64906;51.290;7.348;2023-03-31T13:13:23;96603.94;;;21.10;41.75
76156;BME280;64906;51.290;7.348;2023-03-31T13:15:55;96606.22;;;21.08;41.74
76156;BME280;64906;51.290;7.348;2023-03-31T13:18:21;96594.47;;;21.08;41.96
76156;BME280;64906;51.290;7.348;2023-03-31T13:21:06;96590.22;;;21.10;41.63
76156;BME280;64906;51.290;7.348;2023-03-31T13:23:35;96587.34;;;21.07;42.06
76156;BME280;64906;51.290;7.348;2023-03-31T13:26:02;96588.28;;;21.11;42.39
76156;BME280;64906;51.290;7.348;2023-03-31T13:28:38;96588.78;;;21.01;42.35
76156;BME280;64906;51.290;7.348;2023-03-31T13:31:06;96578.25;;;20.91;42.58
76156;BME280;64906;51.290;7.348;2023-03-31T13:33:35;96582.78;;;21.11;42.80
76156;BME280;64906;51.290;7.348;2023-03-31T13:44:14;96567.41;;;21.22;42.98
76156;BME280;64906;51.290;7.348;2023-03-31T13:46:49;96570.25;;;21.25;42.88
76156;BME280;64906;51.290;7.348;2023-03-31T13:49:48;96564.09;;;21.16;42.91
76156;BME280;64906;51.290;7.348;2023-03-31T13:52:27;96563.59;;;21.26;43.07
76156;BME280;64906;51.290;7.348;2023-03-31T14:00:42;96575.03;;;21.28;43.14
76156;BME280;64906;51.290;7.348;2023-03-31T14:05:41;96568.81;;;21.16;43.15
76156;BME280;64906;51.290;7.348;2023-03-31T14:08:23;96571.13;;;21.29;43.15
76156;BME280;64906;51.290;7.348;2023-03-31T14:11:14;96563.75;;;21.18;43.28
76156;BME280;64906;51.290;7.348;2023-03-31T14:13:40;96570.41;;;21.17;43.32
76156;BME280;64906;51.290;7.348;2023-03-31T14:16:05;96563.34;;;21.16;43.54
76156;BME280;64906;51.290;7.348;2023-03-31T14:18:35;96564.41;;;21.27;43.43
76156;BME280;64906;51.290;7.348;2023-03-31T14:23:50;96564.16;;;21.32;42.97
76156;BME280;64906;51.290;7.348;2023-03-31T14:29:21;96547.34;;;21.33;43.12
76156;BME280;64906;51.290;7.348;2023-03-31T14:32:01;96548.16;;;21.34;42.75
76156;BME280;64906;51.290;7.348;2023-03-31T14:34:38;96548.16;;;21.34;42.67
76156;BME280;64906;51.290;7.348;2023-03-31T14:37:14;96544.25;;;21.35;42.81
76156;BME280;64906;51.290;7.348;2023-03-31T14:39:54;96528.84;;;21.30;42.79
76156;BME280;64906;51.290;7.348;2023-03-31T14:42:42;96534.03;;;21.20;42.94
76156;BME280;64906;51.290;7.348;2023-03-31T14:45:24;96539.06;;;21.18;43.03
76156;BME280;64906;51.290;7.348;2023-03-31T14:50:18;96532.81;;;21.17;42.86
76156;BME280;64906;51.290;7.348;2023-03-31T14:52:49;96528.44;;;21.16;43.07
76156;BME280;64906;51.290;7.348;2023-03-31T14:55:22;96526.50;;;21.17;42.70
76156;BME280;64906;51.290;7.348;2023-03-31T14:57:49;96511.97;;;21.16;42.95
76156;BME280;64906;51.290;7.348;2023-03-31T15:00:24;96513.13;;;21.15;42.99
76156;BME280;64906;51.290;7.348;2023-03-31T15:02:51;96514.31;;;21.14;42.62
76156;BME280;64906;51.290;7.348;2023-03-31T15:05:31;96513.84;;;21.12;42.89
76156;BME280;64906;51.290;7.348;2023-03-31T15:08:06;96522.06;;;21.12;42.64
76156;BME280;64906;51.290;7.348;2023-03-31T15:10:53;96523.22;;;21.11;42.99
76156;BME280;64906;51.290;7.348;2023-03-31T15:13:32;96528.63;;;21.08;43.13
76156;BME280;64906;51.290;7.348;2023-03-31T15:15:59;96525.44;;;21.06;42.82
76156;BME280;64906;51.290;7.348;2023-03-31T15:18:26;96492.41;;;21.02;42.97